Aloha, Oregon
Current Conditions -  °F | °C
As of 5:07 PM on Wednesday 22 Oct 2014 (Local Time) from KHIO Reporting Station
Light Rain Light Rain  
Wind Chill: 13°   Ceiling: 3800
Heat Index: 13°   Visibility: 4mi
Dew Point: 12°   Wind: 13mph
Humidity: 93%   Direction: 130°SE
Pressure: 29.69"   Gusts: NA
Location:  45.49°N, 122.86°W
Report Text: KHIO 230007Z 13011KT 4SM -RA BR OVC038 13/12 A2969 RMK AO2 P0001 T01330122
Loading
Personal Weather Stations






























Interactive Weather Map
Tropical Storm Tracking
New forecast layout! Learn more

10-Day Weather Forecast

Advertisements
Track Severe Weather on mobile